Latest Coastal Weather Observations for Swanbourne

IDW60701

Issued at 8:25 pm WST Monday 21 April 2014 (issued every 10 minutes, with the page automatically refreshed every 10 minutes)

About coastal observations | Map of coastal stations | Coastal observations for WA | Marine services | Other Formats
Station Details ID: 009215 Name: SWANBOURNE Lat: -31.96 Lon: 115.76 Height: 40.96 m
Data from the previous 72 hours. | See also: Recent months at Swanbourne
Date/Time
WST
Temp

°C
Wind Pressure Rain
since 9am
mm
Weather Cloud Vis
km
Sea
Height
m
Swell
Dir
 
Speed
knots
Gust
knots
hPa Trend Height
m
Period
s
Dir
21/08:00pm 17.0 S 6 8 - - 0.0 - - - - - - -
21/07:30pm 17.4 S 7 14 - - 0.0 - - - - - - -
21/07:00pm 17.8 S 9 16 - - 0.0 - - - - - - -
21/06:30pm 18.2 S 10 15 - - 0.0 - - - - - - -
21/06:00pm 18.5 SSW 10 15 - - 0.0 - - - - - - -
21/05:30pm 18.9 SSW 10 16 - - 0.0 - - - - - - -
21/05:00pm 19.7 SSW 10 16 - - 0.0 - - - - - - -
21/04:30pm 20.2 SW 11 17 - - 0.0 - - - - - - -
21/04:00pm 20.6 SW 11 17 - - 0.0 - - - - - - -
21/03:30pm 21.3 SW 11 15 - - 0.0 - - - - - - -
21/03:00pm 22.0 SW 10 15 - - 0.0 - - - - - - -
21/02:30pm 21.7 SW 9 15 - - 0.0 - - - - - - -
21/02:00pm 21.8 SW 11 15 - - 0.0 - - - - - - -
21/01:30pm 21.4 SW 11 14 - - 0.0 - - - - - - -
21/01:00pm 21.4 SW 10 14 - - 0.0 - - - - - - -
21/12:30pm 21.8 SW 10 15 - - 0.0 - - - - - - -
21/12:00pm 22.0 SE 4 7 - - 0.0 - - - - - - -
21/11:30am 22.0 SSE 7 12 - - 0.0 - - - - - - -
21/11:00am 21.8 SSE 6 9 - - 0.0 - - - - - - -
21/10:30am 20.5 ESE 6 11 - - 0.0 - - - - - - -
21/10:00am 20.3 SE 7 11 - - 0.0 - - - - - - -
21/09:30am 19.2 SE 7 11 - - 0.0 - - - - - - -
21/09:00am 17.5 SE 9 13 - - 0.0 - - - - - - -
21/08:30am 16.7 ESE 7 10 - - 0.0 - - - - - - -
21/08:00am 15.5 ESE 7 12 - - 0.0 - - - - - - -
21/07:30am 13.9 ESE 6 8 - - 0.0 - - - - - - -
21/07:00am 13.1 ESE 6 9 - - 0.0 - - - - - - -
21/06:30am 13.4 SE 7 11 - - 0.0 - - - - - - -
21/06:00am 13.7 SE 7 10 - - 0.0 - - - - - - -
21/05:30am 14.0 SSE 6 10 - - 0.0 - - - - - - -
21/05:00am 13.7 SSE 6 9 - - 0.0 - - - - - - -
21/04:30am 13.8 SSE 7 10 - - 0.0 - - - - - - -
21/04:00am 13.8 SSE 5 8 - - 0.0 - - - - - - -
21/03:30am 14.1 SSE 6 9 - - 0.0 - - - - - - -
21/03:00am 14.1 SSE 5 7 - - 0.0 - - - - - - -
21/02:30am 14.3 SSE 5 8 - - 0.0 - - - - - - -
21/02:00am 14.4 SSE 6 9 - - 0.0 - - - - - - -
21/01:30am 14.6 SSE 6 8 - - 0.0 - - - - - - -
21/01:00am 14.9 S 6 10 - - 0.0 - - - - - - -
21/12:30am 15.4 SE 8 12 - - 0.0 - - - - - - -
21/12:00am 15.4 SSE 6 9 - - 0.0 - - - - - - -
 
Date/Time
WST
Temp

°C
Wind Pressure Rain
since 9am
mm
Weather Cloud Vis
km
Sea
Height
m
Swell
Dir
 
Speed
knots
Gust
knots
hPa Trend Height
m
Period
s
Dir
20/11:30pm 15.7 SSE 7 11 - - 0.0 - - - - - - -
20/11:00pm 16.0 S 7 12 - - 0.0 - - - - - - -
20/10:30pm 16.2 S 6 8 - - 0.0 - - - - - - -
20/10:00pm 16.6 SSE 7 10 - - 0.0 - - - - - - -
20/09:30pm 17.2 S 7 10 - - 0.0 - - - - - - -
20/09:00pm 17.6 SSE 7 11 - - 0.0 - - - - - - -
20/08:30pm 18.0 SSE 7 12 - - 0.0 - - - - - - -
20/08:00pm 18.1 S 7 11 - - 0.0 - - - - - - -
20/07:30pm 18.5 S 9 15 - - 0.0 - - - - - - -
20/07:00pm 18.8 S 9 16 - - 0.0 - - - - - - -
20/06:30pm 19.1 S 10 16 - - 0.0 - - - - - - -
20/06:00pm 19.2 S 10 16 - - 0.0 - - - - - - -
20/05:30pm 19.5 SSW 11 19 - - 0.0 - - - - - - -
20/05:00pm 20.2 SSW 14 19 - - 0.0 - - - - - - -
20/04:30pm 20.4 SSW 14 21 - - 0.0 - - - - - - -
20/04:00pm 20.5 SSW 14 21 - - 0.0 - - - - - - -
20/03:30pm 20.5 SSW 11 19 - - 0.0 - - - - - - -
20/03:00pm 20.7 SSW 12 17 - - 0.0 - - - - - - -
20/02:30pm 21.0 SW 11 16 - - 0.0 - - - - - - -
20/02:00pm 20.9 SW 10 15 - - 0.0 - - - - - - -
20/01:30pm 22.8 SW 9 14 - - 0.0 - - - - - - -
20/01:00pm 23.4 SW 8 13 - - 0.0 - - - - - - -
20/12:30pm 21.9 WSW 7 11 - - 0.0 - - - - - - -
20/12:00pm 21.8 SW 6 9 - - 0.0 - - - - - - -
20/11:30am 21.7 SW 8 11 - - 0.0 - - - - - - -
20/11:00am 21.3 SW 8 11 - - 0.0 - - - - - - -
20/10:30am 21.7 SW 5 8 - - 0.0 - - - - - - -
20/10:00am 21.5 SSE 4 6 - - 0.0 - - - - - - -
20/09:30am 20.7 SE 3 6 - - 0.0 - - - - - - -
20/09:00am 19.1 ESE 3 6 - - 0.0 - - - - - - -
20/08:30am 18.1 SSE 3 4 - - 0.0 - - - - - - -
20/08:00am 16.5 SE 3 6 - - 0.0 - - - - - - -
20/07:30am 14.6 SSE 4 6 - - 0.0 - - - - - - -
20/07:00am 13.8 SE 4 5 - - 0.0 - - - - - - -
20/06:30am 13.9 SE 4 5 - - 0.0 - - - - - - -
20/06:00am 14.1 SSE 4 5 - - 0.0 - - - - - - -
20/05:30am 14.3 SE 4 6 - - 0.0 - - - - - - -
20/05:00am 14.3 SSE 4 6 - - 0.0 - - - - - - -
20/04:30am 14.3 SSE 4 5 - - 0.0 - - - - - - -
20/04:00am 14.3 SSE 5 6 - - 0.0 - - - - - - -
20/03:30am 14.3 SE 4 6 - - 0.0 - - - - - - -
20/03:00am 14.1 S 3 4 - - 0.0 - - - - - - -
20/02:30am 14.3 S 3 4 - - 0.0 - - - - - - -
20/02:00am 14.8 ESE 4 5 - - 0.0 - - - - - - -
20/01:30am 15.3 SE 5 7 - - 0.0 - - - - - - -
20/01:00am 15.8 SE 6 9 - - 0.0 - - - - - - -
20/12:30am 16.3 SE 4 7 - - 0.0 - - - - - - -
20/12:00am 16.5 SSE 4 7 - - 0.0 - - - - - - -
 
Date/Time
WST
Temp

°C
Wind Pressure Rain
since 9am
mm
Weather Cloud Vis
km
Sea
Height
m
Swell
Dir
 
Speed
knots
Gust
knots
hPa Trend Height
m
Period
s
Dir
19/11:30pm 17.0 SSE 5 9 - - 0.0 - - - - - - -
19/11:00pm 17.1 S 5 6 - - 0.0 - - - - - - -
19/10:30pm 17.8 S 4 6 - - 0.0 - - - - - - -
19/10:00pm 18.4 S 6 9 - - 0.0 - - - - - - -
19/09:30pm 18.5 S 5 8 - - 0.0 - - - - - - -
19/09:00pm 18.9 S 5 9 - - 0.0 - - - - - - -
19/08:30pm 19.3 S 8 13 - - 0.0 - - - - - - -
19/08:00pm 19.4 S 9 15 - - 0.0 - - - - - - -
19/07:30pm 19.4 S 11 17 - - 0.0 - - - - - - -
19/07:00pm 19.5 S 10 16 - - 0.0 - - - - - - -
19/06:30pm 19.5 S 11 18 - - 0.0 - - - - - - -
19/06:00pm 19.8 SSW 11 16 - - 0.0 - - - - - - -
19/05:30pm 20.2 SSW 12 19 - - 0.0 - - - - - - -
19/05:00pm 20.9 SSW 13 19 - - 0.0 - - - - - - -
19/04:30pm 21.6 SSW 12 20 - - 0.0 - - - - - - -
19/04:00pm 22.1 SSW 12 18 - - 0.0 - - - - - - -
19/03:30pm 22.7 SSW 11 17 - - 0.0 - - - - - - -
19/03:00pm 22.8 SSW 12 18 - - 0.0 - - - - - - -
19/02:30pm 22.9 SW 12 18 - - 0.0 - - - - - - -
19/02:00pm 22.8 SW 12 17 - - 0.0 - - - - - - -
19/01:30pm 23.1 SSW 12 17 - - 0.0 - - - - - - -
19/01:00pm 23.0 SSW 13 18 - - 0.0 - - - - - - -
19/12:30pm 22.9 SSW 13 20 - - 0.0 - - - - - - -
19/12:00pm 22.4 SSW 13 18 - - 0.0 - - - - - - -
19/11:30am 22.8 SSW 11 17 - - 0.0 - - - - - - -
19/11:00am 21.6 SSW 12 16 - - 0.0 - - - - - - -
19/10:30am 21.6 SSW 11 16 - - 0.0 - - - - - - -
19/10:00am 20.9 SSW 11 18 - - 0.0 - - - - - - -
19/09:30am 20.7 S 9 15 - - 0.0 - - - - - - -
19/09:00am 19.9 S 5 9 - - 0.0 - - - - - - -
19/08:30am 18.2 S 4 6 - - 0.0 - - - - - - -
19/08:00am 16.1 SSE 4 6 - - 0.0 - - - - - - -
19/07:30am 14.6 SE 3 4 - - 0.0 - - - - - - -
19/07:00am 13.9 SSE 5 7 - - 0.0 - - - - - - -
19/06:30am 13.8 SSE 4 5 - - 0.0 - - - - - - -
19/06:00am 14.2 SSE 5 7 - - 0.0 - - - - - - -
19/05:30am 14.5 SE 5 8 - - 0.0 - - - - - - -
19/05:00am 14.6 ESE 5 8 - - 0.0 - - - - - - -
19/04:30am 14.6 SSE 5 7 - - 0.0 - - - - - - -
19/04:00am 14.6 SSE 5 7 - - 0.0 - - - - - - -
19/03:30am 14.7 S 4 5 - - 0.0 - - - - - - -
19/03:00am 15.1 S 4 6 - - 0.0 - - - - - - -
19/02:30am 15.6 SSE 5 9 - - 0.0 - - - - - - -
19/02:00am 15.8 S 5 6 - - 0.0 - - - - - - -
19/01:30am 16.4 S 5 7 - - 0.0 - - - - - - -
19/01:00am 16.9 SSE 5 8 - - 0.0 - - - - - - -
19/12:30am 17.4 S 6 11 - - 0.0 - - - - - - -
19/12:00am 18.1 S 8 12 - - 0.0 - - - - - - -
 
Date/Time
WST
Temp

°C
Wind Pressure Rain
since 9am
mm
Weather Cloud Vis
km
Sea
Height
m
Swell
Dir
 
Speed
knots
Gust
knots
hPa Trend Height
m
Period
s
Dir
18/11:30pm 18.3 S 8 13 - - 0.0 - - - - - - -
18/11:00pm 18.6 S 9 15 - - 0.0 - - - - - - -
18/10:30pm 18.3 S 7 10 - - 0.0 - - - - - - -
18/10:00pm 18.6 S 6 10 - - 0.0 - - - - - - -
18/09:30pm 18.6 S 6 10 - - 0.0 - - - - - - -
18/09:00pm 18.7 S 6 8 - - 0.0 - - - - - - -
18/08:30pm 19.3 S 6 10 - - 0.0 - - - - - - -

Other Formats:

Comma delimited format used in spreadsheet applications
http://www.bom.gov.au/fwo/IDW60701/IDW60701.94614.axf

JavaScript Object Notation format (JSON) in row-major order
http://www.bom.gov.au/fwo/IDW60701/IDW60701.94614.json